CYQH

Watson Lake Airport

Watson Lake, , Canada
TAF CYQH 221138Z 2212/2224 VRB03KT P6SM FEW040 SCT080 BKN150 TEMPO 2212/2218 P6SM -SHRA SCT050 BKN080 OVC150 BECMG 2214/2216 28010G20KT FM221800 28012G22KT P6SM SCT150 RMK NXT FCST BY 221800Z
Issued Valid From Valid To
Jun-22 @ 11:38 UTC
(6 hours ago)
Jun-22 @ 12:00 UTC
(5 hours ago)
Jun-23 @ 00:00 UTC
(in 7 hours)
Expired Click to View Jun-22 @ 12:00 to Jun-22 @ 14:00
TAF CYQH 221138Z 2212/2224 VRB03KT P6SM FEW040 SCT080 BKN150
Wind Visibility Clouds
Variable at 3 knots Greater than 6 miles
  • Few at 4,000' AGL
  • Scattered at 8,000' AGL
  • Broken at 15,000' AGL
Temporary Jun-22 @ 12:00 to Jun-22 @ 18:00
TEMPO 2212/2218 P6SM -SHRA SCT050 BKN080 OVC150
Visibility Clouds Conditions
Greater than 6 miles
  • Scattered at 5,000' AGL
  • Broken at 8,000' AGL
  • Overcast at 15,000' AGL
  • Light Rain
Becoming Jun-22 @ 14:00 to Jun-22 @ 18:00
BECMG 2214/2216 28010G20KT
Wind Visibility Clouds
280° at 10 knots
 Gusting to 20 knots
Greater than 6 miles
  • Few at 4,000' AGL
  • Scattered at 8,000' AGL
  • Broken at 15,000' AGL
From Jun-22 @ 18:00 to Jun-23 @ 00:00
FM221800 28012G22KT P6SM SCT150 RMK NXT FCST BY 221800Z
Wind Visibility Clouds
280° at 12 knots
 Gusting to 22 knots
Greater than 6 miles
  • Scattered at 15,000' AGL
TAF CYQH 221138Z 2212/2224 VRB03KT P6SM FEW040 SCT080 BKN150 TEMPO 2212/2218 P6SM -SHRA SCT050 BKN080 OVC150 BECMG 2214/2216 28010G20KT FM221800 28012G22KT P6SM SCT150 RMK NXT FCST BY 221800Z
Issued Jun-22 @ 11:38 UTC
(6 hours ago)
Valid From Jun-22 @ 12:00 UTC
(5 hours ago)
Valid To Jun-23 @ 00:00 UTC
(in 7 hours)
Jun-22 @ 12:00 - Jun-22 @ 14:00
Wind Visibility
Variable at 3 knots Greater than 6 miles
Clouds
  • Few at 4,000' AGL
  • Scattered at 8,000' AGL
  • Broken at 15,000' AGL
Temporary Jun-22 @ 12:00 - Jun-22 @ 18:00
Clouds
  • Scattered at 5,000' AGL
  • Broken at 8,000' AGL
  • Overcast at 15,000' AGL
Conditions
  • Light Rain
Becoming Jun-22 @ 14:00 - Jun-22 @ 18:00
Wind Visibility
280° at 10 knots
 Gusting to 20 knots
Greater than 6 miles
Clouds
  • Few at 4,000' AGL
  • Scattered at 8,000' AGL
  • Broken at 15,000' AGL
From Jun-22 @ 18:00 - Jun-23 @ 00:00
Wind Visibility
280° at 12 knots
 Gusting to 22 knots
Greater than 6 miles
Clouds
  • Scattered at 15,000' AGL